sensor_id;sensor_type;location;lat;lon;timestamp;P1;durP1;ratioP1;P2;durP2;ratioP2
7557;SDS011;3820;51.098;13.716;2023-02-18T00:00:20;5.60;;;2.00;;
7557;SDS011;3820;51.098;13.716;2023-02-18T00:02:49;6.53;;;2.00;;
7557;SDS011;3820;51.098;13.716;2023-02-18T00:05:18;4.77;;;1.93;;
7557;SDS011;3820;51.098;13.716;2023-02-18T00:07:44;6.47;;;1.90;;
7557;SDS011;3820;51.098;13.716;2023-02-18T00:10:12;4.83;;;2.03;;
7557;SDS011;3820;51.098;13.716;2023-02-18T00:12:39;5.47;;;1.90;;
7557;SDS011;3820;51.098;13.716;2023-02-18T00:15:06;4.90;;;1.67;;
7557;SDS011;3820;51.098;13.716;2023-02-18T00:17:34;5.33;;;1.90;;
7557;SDS011;3820;51.098;13.716;2023-02-18T00:20:02;6.40;;;2.00;;
7557;SDS011;3820;51.098;13.716;2023-02-18T00:22:29;4.27;;;1.70;;
7557;SDS011;3820;51.098;13.716;2023-02-18T00:24:56;5.47;;;1.80;;
7557;SDS011;3820;51.098;13.716;2023-02-18T00:27:22;7.80;;;2.10;;
7557;SDS011;3820;51.098;13.716;2023-02-18T00:29:49;4.00;;;1.60;;
7557;SDS011;3820;51.098;13.716;2023-02-18T00:32:16;6.80;;;2.03;;
7557;SDS011;3820;51.098;13.716;2023-02-18T00:34:43;8.13;;;1.87;;
7557;SDS011;3820;51.098;13.716;2023-02-18T00:37:11;5.63;;;1.77;;
7557;SDS011;3820;51.098;13.716;2023-02-18T00:39:38;7.63;;;2.07;;
7557;SDS011;3820;51.098;13.716;2023-02-18T00:42:05;6.30;;;1.70;;
7557;SDS011;3820;51.098;13.716;2023-02-18T00:44:32;4.33;;;1.80;;
7557;SDS011;3820;51.098;13.716;2023-02-18T00:46:58;4.60;;;1.50;;
7557;SDS011;3820;51.098;13.716;2023-02-18T00:49:25;4.97;;;1.83;;
7557;SDS011;3820;51.098;13.716;2023-02-18T00:51:52;6.73;;;2.00;;
7557;SDS011;3820;51.098;13.716;2023-02-18T00:54:19;6.90;;;1.90;;
7557;SDS011;3820;51.098;13.716;2023-02-18T00:56:45;5.37;;;2.00;;
7557;SDS011;3820;51.098;13.716;2023-02-18T00:59:12;7.43;;;1.90;;
7557;SDS011;3820;51.098;13.716;2023-02-18T01:01:38;7.97;;;2.00;;
7557;SDS011;3820;51.098;13.716;2023-02-18T01:04:05;5.67;;;2.07;;
7557;SDS011;3820;51.098;13.716;2023-02-18T01:06:32;5.97;;;1.60;;
7557;SDS011;3820;51.098;13.716;2023-02-18T01:08:58;4.57;;;1.83;;
7557;SDS011;3820;51.098;13.716;2023-02-18T01:11:25;3.83;;;1.70;;
7557;SDS011;3820;51.098;13.716;2023-02-18T01:13:52;6.47;;;1.97;;
7557;SDS011;3820;51.098;13.716;2023-02-18T01:16:18;8.00;;;2.00;;
7557;SDS011;3820;51.098;13.716;2023-02-18T01:18:45;3.93;;;1.50;;
7557;SDS011;3820;51.098;13.716;2023-02-18T01:21:12;8.70;;;1.97;;
7557;SDS011;3820;51.098;13.716;2023-02-18T01:23:39;5.23;;;2.00;;
7557;SDS011;3820;51.098;13.716;2023-02-18T01:26:07;6.97;;;1.60;;
7557;SDS011;3820;51.098;13.716;2023-02-18T01:28:35;4.17;;;1.60;;
7557;SDS011;3820;51.098;13.716;2023-02-18T01:31:08;4.67;;;1.90;;
7557;SDS011;3820;51.098;13.716;2023-02-18T01:33:36;5.13;;;1.50;;
7557;SDS011;3820;51.098;13.716;2023-02-18T01:36:03;4.90;;;1.80;;
7557;SDS011;3820;51.098;13.716;2023-02-18T01:38:30;6.10;;;1.70;;
7557;SDS011;3820;51.098;13.716;2023-02-18T01:40:57;5.37;;;1.50;;
7557;SDS011;3820;51.098;13.716;2023-02-18T01:43:24;6.97;;;1.70;;
7557;SDS011;3820;51.098;13.716;2023-02-18T01:45:56;5.17;;;1.83;;
7557;SDS011;3820;51.098;13.716;2023-02-18T01:48:29;8.70;;;1.80;;
7557;SDS011;3820;51.098;13.716;2023-02-18T01:51:12;6.00;;;2.00;;
7557;SDS011;3820;51.098;13.716;2023-02-18T01:53:46;5.97;;;1.90;;
7557;SDS011;3820;51.098;13.716;2023-02-18T01:56:41;6.40;;;1.80;;
7557;SDS011;3820;51.098;13.716;2023-02-18T01:59:13;5.87;;;2.10;;
7557;SDS011;3820;51.098;13.716;2023-02-18T02:01:43;6.43;;;2.40;;
7557;SDS011;3820;51.098;13.716;2023-02-18T02:04:10;5.47;;;2.10;;
7557;SDS011;3820;51.098;13.716;2023-02-18T02:06:37;10.70;;;2.10;;
7557;SDS011;3820;51.098;13.716;2023-02-18T02:09:04;6.30;;;2.27;;
7557;SDS011;3820;51.098;13.716;2023-02-18T02:14:44;5.03;;;2.33;;
7557;SDS011;3820;51.098;13.716;2023-02-18T02:23:13;4.23;;;1.87;;
7557;SDS011;3820;51.098;13.716;2023-02-18T02:26:03;7.83;;;2.40;;
7557;SDS011;3820;51.098;13.716;2023-02-18T02:28:57;10.00;;;2.60;;
7557;SDS011;3820;51.098;13.716;2023-02-18T02:37:15;5.53;;;1.90;;
7557;SDS011;3820;51.098;13.716;2023-02-18T02:40:20;4.57;;;2.00;;
7557;SDS011;3820;51.098;13.716;2023-02-18T02:48:28;5.47;;;1.97;;
7557;SDS011;3820;51.098;13.716;2023-02-18T02:53:48;7.70;;;2.30;;
7557;SDS011;3820;51.098;13.716;2023-02-18T02:56:16;7.30;;;1.90;;
7557;SDS011;3820;51.098;13.716;2023-02-18T02:58:45;8.10;;;1.87;;
7557;SDS011;3820;51.098;13.716;2023-02-18T03:01:52;7.33;;;1.83;;
7557;SDS011;3820;51.098;13.716;2023-02-18T03:12:26;10.37;;;1.97;;
7557;SDS011;3820;51.098;13.716;2023-02-18T03:15:03;6.67;;;1.90;;
7557;SDS011;3820;51.098;13.716;2023-02-18T03:18:00;5.53;;;1.90;;
7557;SDS011;3820;51.098;13.716;2023-02-18T03:20:32;6.10;;;1.90;;
7557;SDS011;3820;51.098;13.716;2023-02-18T03:23:06;6.43;;;1.80;;
7557;SDS011;3820;51.098;13.716;2023-02-18T03:25:36;6.70;;;1.80;;
7557;SDS011;3820;51.098;13.716;2023-02-18T03:28:04;9.10;;;1.83;;
7557;SDS011;3820;51.098;13.716;2023-02-18T03:30:36;8.13;;;1.90;;
7557;SDS011;3820;51.098;13.716;2023-02-18T03:33:07;4.63;;;1.73;;
7557;SDS011;3820;51.098;13.716;2023-02-18T03:35:35;6.17;;;1.50;;
7557;SDS011;3820;51.098;13.716;2023-02-18T03:38:07;8.23;;;1.93;;
7557;SDS011;3820;51.098;13.716;2023-02-18T03:40:42;6.47;;;1.93;;
7557;SDS011;3820;51.098;13.716;2023-02-18T03:43:08;5.93;;;1.80;;
7557;SDS011;3820;51.098;13.716;2023-02-18T03:45:35;6.20;;;1.60;;
7557;SDS011;3820;51.098;13.716;2023-02-18T03:48:02;8.77;;;1.83;;
7557;SDS011;3820;51.098;13.716;2023-02-18T03:50:28;6.93;;;2.00;;
7557;SDS011;3820;51.098;13.716;2023-02-18T03:52:55;9.17;;;1.60;;
7557;SDS011;3820;51.098;13.716;2023-02-18T03:55:21;6.13;;;1.90;;
7557;SDS011;3820;51.098;13.716;2023-02-18T03:57:48;8.37;;;2.00;;
7557;SDS011;3820;51.098;13.716;2023-02-18T04:00:14;6.77;;;1.93;;
7557;SDS011;3820;51.098;13.716;2023-02-18T04:02:41;6.27;;;1.83;;
7557;SDS011;3820;51.098;13.716;2023-02-18T04:05:08;7.53;;;2.20;;
7557;SDS011;3820;51.098;13.716;2023-02-18T04:07:34;8.50;;;1.73;;
7557;SDS011;3820;51.098;13.716;2023-02-18T04:10:02;8.53;;;1.90;;
7557;SDS011;3820;51.098;13.716;2023-02-18T04:12:29;8.60;;;1.93;;
7557;SDS011;3820;51.098;13.716;2023-02-18T04:14:55;8.60;;;2.20;;
7557;SDS011;3820;51.098;13.716;2023-02-18T04:17:22;5.97;;;2.10;;
7557;SDS011;3820;51.098;13.716;2023-02-18T04:19:48;7.63;;;2.37;;
7557;SDS011;3820;51.098;13.716;2023-02-18T04:22:15;7.70;;;2.47;;
7557;SDS011;3820;51.098;13.716;2023-02-18T04:24:41;7.37;;;2.50;;
7557;SDS011;3820;51.098;13.716;2023-02-18T04:27:08;7.93;;;2.30;;
7557;SDS011;3820;51.098;13.716;2023-02-18T04:29:34;8.90;;;2.37;;
7557;SDS011;3820;51.098;13.716;2023-02-18T04:32:01;6.97;;;2.27;;
7557;SDS011;3820;51.098;13.716;2023-02-18T04:34:28;7.63;;;2.23;;
7557;SDS011;3820;51.098;13.716;2023-02-18T04:36:54;10.73;;;2.33;;
7557;SDS011;3820;51.098;13.716;2023-02-18T04:39:21;8.40;;;2.77;;
7557;SDS011;3820;51.098;13.716;2023-02-18T04:41:48;9.13;;;2.33;;
7557;SDS011;3820;51.098;13.716;2023-02-18T04:44:14;7.37;;;2.20;;
7557;SDS011;3820;51.098;13.716;2023-02-18T04:46:41;11.70;;;2.30;;
7557;SDS011;3820;51.098;13.716;2023-02-18T04:49:07;10.63;;;2.63;;
7557;SDS011;3820;51.098;13.716;2023-02-18T04:51:34;8.90;;;2.60;;
7557;SDS011;3820;51.098;13.716;2023-02-18T04:54:03;8.87;;;2.37;;
7557;SDS011;3820;51.098;13.716;2023-02-18T04:56:29;9.37;;;2.43;;
7557;SDS011;3820;51.098;13.716;2023-02-18T04:58:56;9.00;;;2.93;;
7557;SDS011;3820;51.098;13.716;2023-02-18T05:01:22;9.73;;;3.30;;
7557;SDS011;3820;51.098;13.716;2023-02-18T05:03:49;10.00;;;3.03;;
7557;SDS011;3820;51.098;13.716;2023-02-18T05:06:16;8.63;;;3.53;;
7557;SDS011;3820;51.098;13.716;2023-02-18T05:08:42;12.80;;;3.97;;
7557;SDS011;3820;51.098;13.716;2023-02-18T05:11:09;13.73;;;3.27;;
7557;SDS011;3820;51.098;13.716;2023-02-18T05:13:35;14.73;;;3.73;;
7557;SDS011;3820;51.098;13.716;2023-02-18T05:16:02;7.97;;;3.40;;
7557;SDS011;3820;51.098;13.716;2023-02-18T05:18:28;11.20;;;3.97;;
7557;SDS011;3820;51.098;13.716;2023-02-18T05:20:55;14.20;;;4.13;;
7557;SDS011;3820;51.098;13.716;2023-02-18T05:23:21;8.43;;;4.03;;
7557;SDS011;3820;51.098;13.716;2023-02-18T05:25:48;10.90;;;3.73;;
7557;SDS011;3820;51.098;13.716;2023-02-18T05:28:15;12.50;;;4.07;;
7557;SDS011;3820;51.098;13.716;2023-02-18T05:30:42;9.90;;;3.80;;
7557;SDS011;3820;51.098;13.716;2023-02-18T05:33:08;10.50;;;3.33;;
7557;SDS011;3820;51.098;13.716;2023-02-18T05:35:35;9.63;;;3.60;;
7557;SDS011;3820;51.098;13.716;2023-02-18T05:38:01;10.33;;;4.07;;
7557;SDS011;3820;51.098;13.716;2023-02-18T05:40:28;9.87;;;3.80;;
7557;SDS011;3820;51.098;13.716;2023-02-18T05:42:54;10.07;;;3.70;;
7557;SDS011;3820;51.098;13.716;2023-02-18T05:45:21;12.97;;;3.97;;
7557;SDS011;3820;51.098;13.716;2023-02-18T05:47:47;11.37;;;4.00;;
7557;SDS011;3820;51.098;13.716;2023-02-18T05:50:14;9.60;;;3.87;;
7557;SDS011;3820;51.098;13.716;2023-02-18T05:52:40;9.27;;;3.87;;
7557;SDS011;3820;51.098;13.716;2023-02-18T05:55:07;12.03;;;4.50;;
7557;SDS011;3820;51.098;13.716;2023-02-18T05:57:33;11.60;;;4.90;;
7557;SDS011;3820;51.098;13.716;2023-02-18T05:59:59;13.37;;;5.23;;
7557;SDS011;3820;51.098;13.716;2023-02-18T06:02:26;12.83;;;4.67;;
7557;SDS011;3820;51.098;13.716;2023-02-18T06:04:53;10.90;;;4.90;;
7557;SDS011;3820;51.098;13.716;2023-02-18T06:07:19;13.27;;;5.30;;
7557;SDS011;3820;51.098;13.716;2023-02-18T06:09:46;18.53;;;6.17;;
7557;SDS011;3820;51.098;13.716;2023-02-18T06:12:12;18.53;;;6.60;;
7557;SDS011;3820;51.098;13.716;2023-02-18T06:14:39;14.40;;;6.60;;
7557;SDS011;3820;51.098;13.716;2023-02-18T06:17:08;22.13;;;7.53;;
7557;SDS011;3820;51.098;13.716;2023-02-18T06:19:35;16.60;;;7.50;;
7557;SDS011;3820;51.098;13.716;2023-02-18T06:22:02;18.70;;;8.07;;
7557;SDS011;3820;51.098;13.716;2023-02-18T06:24:29;17.50;;;8.90;;
7557;SDS011;3820;51.098;13.716;2023-02-18T06:26:55;17.57;;;9.27;;
7557;SDS011;3820;51.098;13.716;2023-02-18T06:29:22;20.33;;;9.23;;
7557;SDS011;3820;51.098;13.716;2023-02-18T06:31:48;23.13;;;9.87;;
7557;SDS011;3820;51.098;13.716;2023-02-18T06:34:15;15.40;;;9.30;;
7557;SDS011;3820;51.098;13.716;2023-02-18T06:36:42;19.97;;;10.27;;
7557;SDS011;3820;51.098;13.716;2023-02-18T06:39:08;20.83;;;10.50;;
7557;SDS011;3820;51.098;13.716;2023-02-18T06:41:35;23.33;;;10.67;;
7557;SDS011;3820;51.098;13.716;2023-02-18T06:44:01;22.00;;;12.20;;
7557;SDS011;3820;51.098;13.716;2023-02-18T06:46:28;26.87;;;11.50;;
7557;SDS011;3820;51.098;13.716;2023-02-18T06:48:54;25.63;;;12.30;;
7557;SDS011;3820;51.098;13.716;2023-02-18T06:51:22;28.37;;;13.03;;
7557;SDS011;3820;51.098;13.716;2023-02-18T06:53:48;26.40;;;13.70;;
7557;SDS011;3820;51.098;13.716;2023-02-18T06:56:15;30.57;;;13.60;;
7557;SDS011;3820;51.098;13.716;2023-02-18T06:58:41;30.60;;;14.53;;
7557;SDS011;3820;51.098;13.716;2023-02-18T07:01:08;28.23;;;14.53;;
7557;SDS011;3820;51.098;13.716;2023-02-18T07:03:34;32.13;;;14.97;;
7557;SDS011;3820;51.098;13.716;2023-02-18T07:06:01;30.57;;;15.50;;
7557;SDS011;3820;51.098;13.716;2023-02-18T07:08:27;33.17;;;15.00;;
7557;SDS011;3820;51.098;13.716;2023-02-18T07:10:56;32.17;;;15.80;;
7557;SDS011;3820;51.098;13.716;2023-02-18T07:13:22;37.07;;;16.03;;
7557;SDS011;3820;51.098;13.716;2023-02-18T07:15:49;34.50;;;15.63;;
7557;SDS011;3820;51.098;13.716;2023-02-18T07:18:15;32.63;;;16.00;;
7557;SDS011;3820;51.098;13.716;2023-02-18T07:20:42;38.83;;;17.83;;
7557;SDS011;3820;51.098;13.716;2023-02-18T07:23:09;43.90;;;18.77;;
7557;SDS011;3820;51.098;13.716;2023-02-18T07:25:36;32.93;;;16.43;;
7557;SDS011;3820;51.098;13.716;2023-02-18T07:28:03;37.83;;;17.67;;
7557;SDS011;3820;51.098;13.716;2023-02-18T07:30:29;38.50;;;18.27;;
7557;SDS011;3820;51.098;13.716;2023-02-18T07:32:56;37.57;;;17.57;;
7557;SDS011;3820;51.098;13.716;2023-02-18T07:35:23;29.53;;;15.87;;
7557;SDS011;3820;51.098;13.716;2023-02-18T07:37:49;37.97;;;17.80;;
7557;SDS011;3820;51.098;13.716;2023-02-18T07:40:17;31.00;;;15.43;;
7557;SDS011;3820;51.098;13.716;2023-02-18T07:42:46;33.23;;;17.80;;
7557;SDS011;3820;51.098;13.716;2023-02-18T07:45:12;44.23;;;19.03;;
7557;SDS011;3820;51.098;13.716;2023-02-18T07:47:39;42.43;;;21.33;;
7557;SDS011;3820;51.098;13.716;2023-02-18T07:50:07;44.73;;;22.77;;
7557;SDS011;3820;51.098;13.716;2023-02-18T07:52:34;43.63;;;22.77;;
7557;SDS011;3820;51.098;13.716;2023-02-18T07:55:01;40.87;;;21.03;;
7557;SDS011;3820;51.098;13.716;2023-02-18T07:57:27;41.90;;;23.23;;
7557;SDS011;3820;51.098;13.716;2023-02-18T07:59:54;39.33;;;20.43;;
7557;SDS011;3820;51.098;13.716;2023-02-18T08:02:22;38.27;;;19.03;;
7557;SDS011;3820;51.098;13.716;2023-02-18T08:04:49;36.07;;;18.13;;
7557;SDS011;3820;51.098;13.716;2023-02-18T08:07:16;29.97;;;17.60;;
7557;SDS011;3820;51.098;13.716;2023-02-18T08:09:44;32.93;;;18.33;;
7557;SDS011;3820;51.098;13.716;2023-02-18T08:12:11;30.33;;;17.70;;
7557;SDS011;3820;51.098;13.716;2023-02-18T08:14:37;30.97;;;17.47;;
7557;SDS011;3820;51.098;13.716;2023-02-18T08:17:04;35.70;;;17.80;;
7557;SDS011;3820;51.098;13.716;2023-02-18T08:19:30;31.60;;;16.73;;
7557;SDS011;3820;51.098;13.716;2023-02-18T08:22:00;30.67;;;16.37;;
7557;SDS011;3820;51.098;13.716;2023-02-18T08:24:27;31.80;;;16.73;;
7557;SDS011;3820;51.098;13.716;2023-02-18T08:26:53;35.83;;;20.23;;
7557;SDS011;3820;51.098;13.716;2023-02-18T08:29:26;34.77;;;19.73;;
7557;SDS011;3820;51.098;13.716;2023-02-18T08:31:53;28.80;;;17.60;;
7557;SDS011;3820;51.098;13.716;2023-02-18T08:34:20;81.23;;;57.17;;
7557;SDS011;3820;51.098;13.716;2023-02-18T08:36:46;48.77;;;30.00;;
7557;SDS011;3820;51.098;13.716;2023-02-18T08:39:13;48.60;;;30.67;;
7557;SDS011;3820;51.098;13.716;2023-02-18T08:41:39;35.80;;;23.37;;
7557;SDS011;3820;51.098;13.716;2023-02-18T08:44:06;42.97;;;23.97;;
7557;SDS011;3820;51.098;13.716;2023-02-18T08:46:32;37.27;;;24.17;;
7557;SDS011;3820;51.098;13.716;2023-02-18T08:49:02;45.40;;;26.00;;
7557;SDS011;3820;51.098;13.716;2023-02-18T08:51:29;36.80;;;21.30;;
7557;SDS011;3820;51.098;13.716;2023-02-18T08:53:56;35.27;;;21.73;;
7557;SDS011;3820;51.098;13.716;2023-02-18T08:56:23;47.23;;;23.30;;
7557;SDS011;3820;51.098;13.716;2023-02-18T08:58:52;37.20;;;21.03;;
7557;SDS011;3820;51.098;13.716;2023-02-18T09:01:18;34.97;;;19.77;;
7557;SDS011;3820;51.098;13.716;2023-02-18T09:03:46;40.20;;;22.53;;
7557;SDS011;3820;51.098;13.716;2023-02-18T09:06:13;34.70;;;19.53;;
7557;SDS011;3820;51.098;13.716;2023-02-18T09:08:40;31.93;;;20.20;;
7557;SDS011;3820;51.098;13.716;2023-02-18T09:11:06;39.80;;;21.67;;
7557;SDS011;3820;51.098;13.716;2023-02-18T09:13:33;40.93;;;22.93;;
7557;SDS011;3820;51.098;13.716;2023-02-18T09:16:01;37.47;;;21.77;;
7557;SDS011;3820;51.098;13.716;2023-02-18T09:18:31;32.83;;;19.13;;
7557;SDS011;3820;51.098;13.716;2023-02-18T09:20:58;39.10;;;22.33;;
7557;SDS011;3820;51.098;13.716;2023-02-18T09:23:26;46.87;;;23.70;;
7557;SDS011;3820;51.098;13.716;2023-02-18T09:25:54;38.07;;;22.73;;
7557;SDS011;3820;51.098;13.716;2023-02-18T09:28:20;33.93;;;21.50;;
7557;SDS011;3820;51.098;13.716;2023-02-18T09:30:47;35.30;;;21.03;;
7557;SDS011;3820;51.098;13.716;2023-02-18T09:33:14;37.30;;;20.33;;
7557;SDS011;3820;51.098;13.716;2023-02-18T09:35:41;38.13;;;21.83;;
7557;SDS011;3820;51.098;13.716;2023-02-18T09:38:09;38.57;;;24.20;;
7557;SDS011;3820;51.098;13.716;2023-02-18T09:40:38;44.53;;;26.33;;
7557;SDS011;3820;51.098;13.716;2023-02-18T09:43:10;43.03;;;26.17;;
7557;SDS011;3820;51.098;13.716;2023-02-18T09:45:58;39.70;;;24.20;;
7557;SDS011;3820;51.098;13.716;2023-02-18T09:48:26;37.03;;;21.67;;
7557;SDS011;3820;51.098;13.716;2023-02-18T09:50:54;35.60;;;21.93;;
7557;SDS011;3820;51.098;13.716;2023-02-18T09:53:22;42.07;;;23.50;;
7557;SDS011;3820;51.098;13.716;2023-02-18T09:55:53;37.50;;;23.50;;
7557;SDS011;3820;51.098;13.716;2023-02-18T09:58:25;29.07;;;17.07;;
7557;SDS011;3820;51.098;13.716;2023-02-18T10:03:59;34.60;;;19.43;;
7557;SDS011;3820;51.098;13.716;2023-02-18T10:06:33;31.53;;;20.23;;
7557;SDS011;3820;51.098;13.716;2023-02-18T10:09:20;33.30;;;19.63;;
7557;SDS011;3820;51.098;13.716;2023-02-18T10:11:50;21.73;;;14.67;;
7557;SDS011;3820;51.098;13.716;2023-02-18T10:14:18;10.03;;;6.10;;
7557;SDS011;3820;51.098;13.716;2023-02-18T10:16:45;7.97;;;5.63;;
7557;SDS011;3820;51.098;13.716;2023-02-18T10:19:19;8.50;;;6.00;;
7557;SDS011;3820;51.098;13.716;2023-02-18T10:22:06;6.07;;;4.43;;
7557;SDS011;3820;51.098;13.716;2023-02-18T10:24:35;5.50;;;3.60;;
7557;SDS011;3820;51.098;13.716;2023-02-18T10:27:04;6.17;;;3.40;;
7557;SDS011;3820;51.098;13.716;2023-02-18T10:29:32;4.00;;;3.10;;
7557;SDS011;3820;51.098;13.716;2023-02-18T10:37:25;2.57;;;2.30;;
7557;SDS011;3820;51.098;13.716;2023-02-18T10:39:59;3.90;;;2.80;;
7557;SDS011;3820;51.098;13.716;2023-02-18T10:45:32;2.60;;;2.40;;
7557;SDS011;3820;51.098;13.716;2023-02-18T10:48:18;2.50;;;2.30;;
7557;SDS011;3820;51.098;13.716;2023-02-18T10:50:53;5.00;;;2.50;;
7557;SDS011;3820;51.098;13.716;2023-02-18T10:56:04;3.60;;;2.50;;
7557;SDS011;3820;51.098;13.716;2023-02-18T10:58:33;3.10;;;2.77;;
7557;SDS011;3820;51.098;13.716;2023-02-18T11:01:14;2.73;;;2.30;;
7557;SDS011;3820;51.098;13.716;2023-02-18T11:03:50;6.80;;;2.73;;
7557;SDS011;3820;51.098;13.716;2023-02-18T11:06:30;5.33;;;2.80;;
7557;SDS011;3820;51.098;13.716;2023-02-18T11:08:59;4.00;;;2.20;;
7557;SDS011;3820;51.098;13.716;2023-02-18T11:11:30;4.00;;;1.90;;
7557;SDS011;3820;51.098;13.716;2023-02-18T11:14:02;3.53;;;1.93;;
7557;SDS011;3820;51.098;13.716;2023-02-18T11:16:45;3.73;;;1.83;;
7557;SDS011;3820;51.098;13.716;2023-02-18T11:19:34;4.10;;;1.70;;
7557;SDS011;3820;51.098;13.716;2023-02-18T11:22:14;2.10;;;1.57;;
7557;SDS011;3820;51.098;13.716;2023-02-18T11:24:44;1.80;;;1.30;;
7557;SDS011;3820;51.098;13.716;2023-02-18T11:27:21;2.17;;;1.40;;
7557;SDS011;3820;51.098;13.716;2023-02-18T11:29:51;1.20;;;1.10;;
7557;SDS011;3820;51.098;13.716;2023-02-18T11:32:20;1.27;;;1.17;;
7557;SDS011;3820;51.098;13.716;2023-02-18T11:34:46;1.23;;;1.10;;
7557;SDS011;3820;51.098;13.716;2023-02-18T11:37:16;2.10;;;1.30;;
7557;SDS011;3820;51.098;13.716;2023-02-18T11:39:45;1.40;;;1.20;;
7557;SDS011;3820;51.098;13.716;2023-02-18T11:42:15;1.00;;;0.90;;
7557;SDS011;3820;51.098;13.716;2023-02-18T11:44:56;1.23;;;0.90;;
7557;SDS011;3820;51.098;13.716;2023-02-18T11:47:27;1.13;;;0.87;;
7557;SDS011;3820;51.098;13.716;2023-02-18T11:50:13;1.77;;;1.10;;
7557;SDS011;3820;51.098;13.716;2023-02-18T11:52:45;2.77;;;1.90;;
7557;SDS011;3820;51.098;13.716;2023-02-18T11:55:20;1.97;;;1.40;;
7557;SDS011;3820;51.098;13.716;2023-02-18T11:57:55;1.47;;;1.00;;
7557;SDS011;3820;51.098;13.716;2023-02-18T12:00:40;1.70;;;0.80;;
7557;SDS011;3820;51.098;13.716;2023-02-18T12:05:44;1.10;;;0.80;;
7557;SDS011;3820;51.098;13.716;2023-02-18T12:08:12;1.00;;;0.90;;
7557;SDS011;3820;51.098;13.716;2023-02-18T12:10:46;2.07;;;1.10;;
7557;SDS011;3820;51.098;13.716;2023-02-18T12:15:57;1.50;;;1.20;;
7557;SDS011;3820;51.098;13.716;2023-02-18T12:21:28;3.17;;;1.93;;
7557;SDS011;3820;51.098;13.716;2023-02-18T12:24:09;3.57;;;1.50;;
7557;SDS011;3820;51.098;13.716;2023-02-18T12:38:10;3.80;;;1.60;;
7557;SDS011;3820;51.098;13.716;2023-02-18T12:41:01;2.27;;;1.70;;
7557;SDS011;3820;51.098;13.716;2023-02-18T12:44:00;2.17;;;1.80;;
7557;SDS011;3820;51.098;13.716;2023-02-18T12:46:41;3.13;;;2.00;;
7557;SDS011;3820;51.098;13.716;2023-02-18T12:49:16;2.63;;;1.97;;
7557;SDS011;3820;51.098;13.716;2023-02-18T12:54:40;2.97;;;2.03;;
7557;SDS011;3820;51.098;13.716;2023-02-18T12:57:19;2.87;;;2.00;;
7557;SDS011;3820;51.098;13.716;2023-02-18T13:02:36;2.10;;;1.90;;
7557;SDS011;3820;51.098;13.716;2023-02-18T13:05:28;2.80;;;2.20;;
7557;SDS011;3820;51.098;13.716;2023-02-18T13:08:11;5.60;;;2.40;;
7557;SDS011;3820;51.098;13.716;2023-02-18T13:13:41;2.40;;;2.20;;
7557;SDS011;3820;51.098;13.716;2023-02-18T13:16:11;3.13;;;1.70;;
7557;SDS011;3820;51.098;13.716;2023-02-18T13:18:40;3.27;;;2.00;;
7557;SDS011;3820;51.098;13.716;2023-02-18T13:21:10;1.90;;;1.80;;
7557;SDS011;3820;51.098;13.716;2023-02-18T13:23:39;2.20;;;1.67;;
7557;SDS011;3820;51.098;13.716;2023-02-18T13:26:12;1.90;;;1.50;;
7557;SDS011;3820;51.098;13.716;2023-02-18T13:28:50;1.63;;;1.40;;
7557;SDS011;3820;51.098;13.716;2023-02-18T13:33:59;1.63;;;1.37;;
7557;SDS011;3820;51.098;13.716;2023-02-18T13:41:33;2.20;;;1.37;;
7557;SDS011;3820;51.098;13.716;2023-02-18T13:44:06;1.67;;;1.53;;
7557;SDS011;3820;51.098;13.716;2023-02-18T13:46:46;3.87;;;1.50;;
7557;SDS011;3820;51.098;13.716;2023-02-18T13:49:19;2.33;;;1.20;;
7557;SDS011;3820;51.098;13.716;2023-02-18T13:51:48;3.10;;;2.00;;
7557;SDS011;3820;51.098;13.716;2023-02-18T13:54:26;3.07;;;1.90;;
7557;SDS011;3820;51.098;13.716;2023-02-18T13:59:32;2.07;;;1.60;;
7557;SDS011;3820;51.098;13.716;2023-02-18T14:02:21;1.87;;;1.40;;
7557;SDS011;3820;51.098;13.716;2023-02-18T14:17:46;1.30;;;1.20;;
7557;SDS011;3820;51.098;13.716;2023-02-18T14:20:42;1.57;;;1.47;;
7557;SDS011;3820;51.098;13.716;2023-02-18T14:23:11;2.03;;;1.40;;
7557;SDS011;3820;51.098;13.716;2023-02-18T14:25:57;5.00;;;1.90;;
7557;SDS011;3820;51.098;13.716;2023-02-18T14:31:01;1.83;;;1.40;;
7557;SDS011;3820;51.098;13.716;2023-02-18T14:33:33;2.47;;;1.20;;
7557;SDS011;3820;51.098;13.716;2023-02-18T14:38:54;1.83;;;1.40;;
7557;SDS011;3820;51.098;13.716;2023-02-18T14:42:00;2.07;;;1.50;;
7557;SDS011;3820;51.098;13.716;2023-02-18T14:48:08;2.07;;;1.20;;
7557;SDS011;3820;51.098;13.716;2023-02-18T14:50:59;1.43;;;1.20;;
7557;SDS011;3820;51.098;13.716;2023-02-18T14:53:26;1.40;;;1.30;;
7557;SDS011;3820;51.098;13.716;2023-02-18T14:55:56;1.33;;;1.20;;
7557;SDS011;3820;51.098;13.716;2023-02-18T14:58:37;1.90;;;1.17;;
7557;SDS011;3820;51.098;13.716;2023-02-18T15:01:20;1.10;;;1.00;;
7557;SDS011;3820;51.098;13.716;2023-02-18T15:03:50;4.13;;;2.23;;
7557;SDS011;3820;51.098;13.716;2023-02-18T15:08:51;5.67;;;3.10;;
7557;SDS011;3820;51.098;13.716;2023-02-18T15:11:18;3.43;;;2.17;;
7557;SDS011;3820;51.098;13.716;2023-02-18T15:13:47;2.83;;;1.60;;
7557;SDS011;3820;51.098;13.716;2023-02-18T15:16:29;3.43;;;1.93;;
7557;SDS011;3820;51.098;13.716;2023-02-18T15:18:58;1.73;;;1.63;;
7557;SDS011;3820;51.098;13.716;2023-02-18T15:21:34;1.57;;;1.37;;
7557;SDS011;3820;51.098;13.716;2023-02-18T15:24:07;3.23;;;1.40;;
7557;SDS011;3820;51.098;13.716;2023-02-18T15:26:36;2.00;;;1.80;;
7557;SDS011;3820;51.098;13.716;2023-02-18T15:29:14;1.40;;;1.20;;
7557;SDS011;3820;51.098;13.716;2023-02-18T15:31:44;2.27;;;2.00;;
7557;SDS011;3820;51.098;13.716;2023-02-18T15:36:51;3.90;;;1.30;;
7557;SDS011;3820;51.098;13.716;2023-02-18T15:39:18;2.80;;;1.30;;
7557;SDS011;3820;51.098;13.716;2023-02-18T15:41:44;1.27;;;1.00;;
7557;SDS011;3820;51.098;13.716;2023-02-18T15:44:17;2.43;;;1.03;;
7557;SDS011;3820;51.098;13.716;2023-02-18T15:46:46;2.07;;;1.00;;
7557;SDS011;3820;51.098;13.716;2023-02-18T15:49:14;1.53;;;1.00;;
7557;SDS011;3820;51.098;13.716;2023-02-18T15:51:41;2.70;;;1.30;;
7557;SDS011;3820;51.098;13.716;2023-02-18T15:54:16;1.53;;;1.00;;
7557;SDS011;3820;51.098;13.716;2023-02-18T15:56:45;2.47;;;1.00;;
7557;SDS011;3820;51.098;13.716;2023-02-18T16:02:01;0.93;;;0.90;;
7557;SDS011;3820;51.098;13.716;2023-02-18T16:04:39;1.43;;;1.10;;
7557;SDS011;3820;51.098;13.716;2023-02-18T16:07:23;0.93;;;0.83;;
7557;SDS011;3820;51.098;13.716;2023-02-18T16:09:56;3.07;;;1.10;;
7557;SDS011;3820;51.098;13.716;2023-02-18T16:12:36;2.50;;;1.00;;
7557;SDS011;3820;51.098;13.716;2023-02-18T16:15:03;3.40;;;1.33;;
7557;SDS011;3820;51.098;13.716;2023-02-18T16:17:30;1.43;;;1.20;;
7557;SDS011;3820;51.098;13.716;2023-02-18T16:22:51;1.67;;;1.10;;
7557;SDS011;3820;51.098;13.716;2023-02-18T16:30:30;1.13;;;1.00;;
7557;SDS011;3820;51.098;13.716;2023-02-18T16:32:59;1.27;;;1.10;;
7557;SDS011;3820;51.098;13.716;2023-02-18T16:35:27;1.93;;;1.40;;
7557;SDS011;3820;51.098;13.716;2023-02-18T16:38:02;2.43;;;1.20;;
7557;SDS011;3820;51.098;13.716;2023-02-18T16:40:33;1.20;;;1.10;;
7557;SDS011;3820;51.098;13.716;2023-02-18T16:43:05;1.77;;;1.23;;
7557;SDS011;3820;51.098;13.716;2023-02-18T16:45:42;2.60;;;1.63;;
7557;SDS011;3820;51.098;13.716;2023-02-18T16:48:31;1.77;;;1.20;;
7557;SDS011;3820;51.098;13.716;2023-02-18T16:51:00;1.30;;;1.20;;
7557;SDS011;3820;51.098;13.716;2023-02-18T16:53:31;2.40;;;1.00;;
7557;SDS011;3820;51.098;13.716;2023-02-18T16:55:58;1.63;;;1.10;;
7557;SDS011;3820;51.098;13.716;2023-02-18T16:58:26;2.07;;;1.00;;
7557;SDS011;3820;51.098;13.716;2023-02-18T17:00:52;1.57;;;1.23;;
7557;SDS011;3820;51.098;13.716;2023-02-18T17:03:19;1.33;;;1.10;;
7557;SDS011;3820;51.098;13.716;2023-02-18T17:05:46;1.37;;;0.90;;
7557;SDS011;3820;51.098;13.716;2023-02-18T17:10:45;1.30;;;0.90;;
7557;SDS011;3820;51.098;13.716;2023-02-18T17:13:16;0.80;;;0.70;;
7557;SDS011;3820;51.098;13.716;2023-02-18T17:15:45;1.07;;;1.00;;